Alconbury RAF, United Kingdom

11:37 AM GMT on December 26, 2014 (GMT +0000)
Cambridgeshire | Change Station
CLOSE
Current Station
Personal Weather Station
Location: St Ives, CAMBRIDGESHIRE
Elevation: 95 ft
Nearby Weather Stations

Elev 95 ft 52.34 °N, 0.09 °W | Updated 29 minutes ago

Overcast
Overcast
37.0 °F
Feels Like 37 °F
N
0.0
Wind Variable Wind from SSE
Gusts 0.0 mph

Today
High -- | Low -- °F
--% Chance of Precip.
Yesterday
High -- | Low -- °F
Precip. -- in
8:10 AM 3:52 PM
Waxing Crescent, 25% visible
Pressure 30.33 in
Visibility 6.2 miles
Clouds Overcast 13000 ft
Windchill 37 °F
Dew Point 36 °F
Humidity 94%
Rainfall 0.00 in
Snow Depth Not available.
UV 0 out of 12
Pollen Not available.
Air Quality Not available.
Flu Activity Not available.
METAR EGXT 261050Z AUTO 17003KT 9999 OVC130/// 02/01 Q1027

More Conditions Fewer Conditions

Pressure 30.33 in
Visibility 6.2 miles
Clouds Overcast 13000 ft
Windchill 37 °F
Dew Point 36 °F
Humidity 94%
Rainfall 0.00 in
Snow Depth Not available.
UV 0 out of 12
Pollen Not available.
Air Quality Not available.
Flu Activity Not available.
METAR EGXT 261050Z AUTO 17003KT 9999 OVC130/// 02/01 Q1027

More Conditions Fewer Conditions

10-Day Weather Forecast

Almanac

Astronomy

Dec. 26, 2014 Rise Set
Actual Time
Civil Twilight
Nautical Twilight
Astronomical Twilight
Moon
Length of Visible Light
Length of Day
Tomorrow will be .
, % of the Moon is Illuminated

Today's Extremes

Country Highs Country Lows

Community

WunderPhotos

Upload Photos

1,780,580 photos uploaded!

WunderBlogs® & News

Nearby

Air Quality

  Air Quality AQ Index Pollutant
Not available.

Snow Depth

Station Depth Elevation

Earthquake Activity

City Distance Mag. Time & Date
Minimum magnitude displayed is 2.5.

Coastal Water Temperatures

Place Temperature

Nearby Weather Stations